createdAt,value
2023-04-19T00:00:49.677Z,98.14
2023-04-19T00:03:03.112Z,98.16
2023-04-19T00:05:16.000Z,98.08
2023-04-19T00:07:28.573Z,98.11
2023-04-19T00:09:41.183Z,97.76
2023-04-19T00:11:53.835Z,97.52
2023-04-19T00:14:06.465Z,97.21
2023-04-19T00:16:19.057Z,97.07
2023-04-19T00:18:31.613Z,96.73
2023-04-19T00:20:44.528Z,96.30
2023-04-19T00:22:59.154Z,96.27
2023-04-19T00:25:11.712Z,96.35
2023-04-19T00:27:24.364Z,96.46
2023-04-19T00:29:36.980Z,96.17
2023-04-19T00:31:49.597Z,96.25
2023-04-19T00:34:02.159Z,96.33
2023-04-19T00:36:14.737Z,96.34
2023-04-19T00:38:27.275Z,96.31
2023-04-19T00:40:39.839Z,96.16
2023-04-19T00:42:52.435Z,95.99
2023-04-19T00:45:05.667Z,95.77
2023-04-19T00:47:18.602Z,96.13
2023-04-19T00:49:31.611Z,95.87
2023-04-19T00:51:44.567Z,95.88
2023-04-19T00:53:58.118Z,95.67
2023-04-19T00:56:11.204Z,95.84
2023-04-19T00:58:23.822Z,95.84
2023-04-19T01:00:37.217Z,95.74
2023-04-19T01:02:49.896Z,95.93
2023-04-19T01:05:03.422Z,95.85
2023-04-19T01:07:16.124Z,96.10
2023-04-19T01:09:28.721Z,96.01
2023-04-19T01:11:43.206Z,95.77
2023-04-19T01:13:56.751Z,95.39
2023-04-19T01:16:09.541Z,94.44
2023-04-19T01:18:24.368Z,93.67
2023-04-19T01:20:37.038Z,93.00
2023-04-19T01:22:49.604Z,92.95
2023-04-19T01:25:02.143Z,92.29
2023-04-19T01:27:16.638Z,91.78
2023-04-19T01:29:29.215Z,91.96
2023-04-19T01:31:41.906Z,91.96
2023-04-19T01:33:54.512Z,91.55
2023-04-19T01:36:07.718Z,91.44
2023-04-19T01:38:20.466Z,91.26
2023-04-19T01:40:33.072Z,91.30
2023-04-19T01:42:45.624Z,91.14
2023-04-19T01:44:58.128Z,90.99
2023-04-19T01:47:11.194Z,91.13
2023-04-19T01:49:23.895Z,91.14
2023-04-19T01:51:38.690Z,90.82
2023-04-19T01:53:53.673Z,90.81
2023-04-19T01:56:06.343Z,90.88
2023-04-19T01:58:18.978Z,90.57
2023-04-19T02:00:31.564Z,90.04
2023-04-19T02:02:44.759Z,89.22
2023-04-19T02:04:57.910Z,88.85
2023-04-19T02:07:10.513Z,88.65
2023-04-19T02:09:23.173Z,87.61
2023-04-19T02:11:35.751Z,87.23
2023-04-19T02:13:48.435Z,86.15
2023-04-19T02:16:04.350Z,86.01
2023-04-19T02:18:17.515Z,85.50
2023-04-19T02:20:31.187Z,84.99
2023-04-19T02:22:44.023Z,84.30
2023-04-19T02:24:56.612Z,83.74
2023-04-19T02:27:09.185Z,82.99
2023-04-19T02:29:21.723Z,81.31
2023-04-19T02:31:34.272Z,80.26
2023-04-19T02:33:46.982Z,79.99
2023-04-19T02:35:59.547Z,79.87
2023-04-19T02:38:12.101Z,79.95
2023-04-19T02:40:25.582Z,80.17
2023-04-19T02:42:38.132Z,80.44
2023-04-19T02:44:50.793Z,80.36
2023-04-19T02:47:03.373Z,80.43
2023-04-19T02:49:16.180Z,80.79
2023-04-19T02:51:29.458Z,81.00
2023-04-19T02:53:42.082Z,81.07
2023-04-19T02:55:55.097Z,81.14
2023-04-19T02:58:07.755Z,81.21
2023-04-19T03:00:20.482Z,81.37
2023-04-19T03:02:33.184Z,81.22
2023-04-19T03:04:47.247Z,80.97
2023-04-19T03:06:59.884Z,80.33
2023-04-19T03:09:12.435Z,79.99
2023-04-19T03:11:25.076Z,80.04
2023-04-19T03:13:37.784Z,79.57
2023-04-19T03:15:50.855Z,79.03
2023-04-19T03:18:03.603Z,78.79
2023-04-19T03:20:17.101Z,78.12
2023-04-19T03:22:29.664Z,77.74
2023-04-19T03:24:42.531Z,77.73
2023-04-19T03:26:55.685Z,77.54
2023-04-19T03:29:08.255Z,77.40
2023-04-19T03:31:20.855Z,77.18
2023-04-19T03:33:33.448Z,76.70
2023-04-19T03:35:45.999Z,76.34
2023-04-19T03:37:58.911Z,75.75
2023-04-19T03:40:11.821Z,75.48
2023-04-19T03:42:24.765Z,75.15
2023-04-19T03:44:38.189Z,75.14
2023-04-19T03:46:50.743Z,74.91
2023-04-19T03:49:03.466Z,74.60
2023-04-19T03:51:16.328Z,74.61
2023-04-19T03:53:28.879Z,74.50
2023-04-19T03:55:41.418Z,74.25
2023-04-19T03:57:53.946Z,73.94
2023-04-19T04:00:09.648Z,74.06
2023-04-19T04:02:22.467Z,74.04
2023-04-19T04:04:35.515Z,74.06
2023-04-19T04:06:48.242Z,74.40
2023-04-19T04:09:00.996Z,74.62
2023-04-19T04:11:13.666Z,74.80
2023-04-19T04:13:26.204Z,74.79
2023-04-19T04:15:38.726Z,75.09
2023-04-19T04:17:51.663Z,75.25
2023-04-19T04:20:05.668Z,75.59
2023-04-19T04:22:18.325Z,76.13
2023-04-19T04:24:32.845Z,76.67
2023-04-19T04:26:45.615Z,77.62
2023-04-19T04:28:58.162Z,78.56
2023-04-19T04:31:12.759Z,79.75
2023-04-19T04:33:26.780Z,81.46
2023-04-19T04:35:39.766Z,84.07
2023-04-19T04:37:53.915Z,83.19
2023-04-19T04:40:08.108Z,84.41
2023-04-19T04:42:21.552Z,85.29
2023-04-19T04:44:37.157Z,86.17
2023-04-19T04:46:50.111Z,86.98
2023-04-19T04:49:03.245Z,87.73
2023-04-19T04:51:15.816Z,88.53
2023-04-19T04:53:28.460Z,89.13
2023-04-19T04:55:41.070Z,89.50
2023-04-19T04:57:53.702Z,89.66
2023-04-19T05:00:07.014Z,90.25
2023-04-19T05:02:19.773Z,90.53
2023-04-19T05:04:33.250Z,90.81
2023-04-19T05:06:45.923Z,91.14
2023-04-19T05:08:58.450Z,91.29
2023-04-19T05:11:11.042Z,91.36
2023-04-19T05:13:23.637Z,91.73
2023-04-19T05:15:36.257Z,92.16
2023-04-19T05:17:48.876Z,92.38
2023-04-19T05:20:01.755Z,92.42
2023-04-19T05:22:14.471Z,92.51
2023-04-19T05:24:27.430Z,92.72
2023-04-19T05:26:39.930Z,92.52
2023-04-19T05:28:52.474Z,92.79
2023-04-19T05:31:05.214Z,93.09
2023-04-19T05:33:17.794Z,93.46
2023-04-19T05:35:30.519Z,93.60
2023-04-19T05:37:43.768Z,93.90
2023-04-19T05:39:57.144Z,94.12
2023-04-19T05:42:09.687Z,94.42
2023-04-19T05:44:22.271Z,94.72
2023-04-19T05:46:34.919Z,95.06
2023-04-19T05:48:47.502Z,94.92
2023-04-19T05:51:00.071Z,95.02
2023-04-19T05:53:12.596Z,94.72
2023-04-19T05:55:25.332Z,94.48
2023-04-19T05:57:37.819Z,94.36
2023-04-19T05:59:50.411Z,94.15
2023-04-19T06:02:03.367Z,93.46
2023-04-19T06:04:16.780Z,92.86
2023-04-19T06:06:29.852Z,92.42
2023-04-19T06:08:42.383Z,91.79
2023-04-19T06:11:00.144Z,91.30
2023-04-19T06:13:17.672Z,90.69
2023-04-19T06:15:30.924Z,89.88
2023-04-19T06:17:43.754Z,89.84
2023-04-19T06:19:56.399Z,89.33
2023-04-19T06:22:09.025Z,89.24
2023-04-19T06:24:21.602Z,88.57
2023-04-19T06:26:34.154Z,87.44
2023-04-19T06:28:46.781Z,86.53
2023-04-19T06:30:59.273Z,85.23
2023-04-19T06:33:11.816Z,84.35
2023-04-19T06:35:25.333Z,83.94
2023-04-19T06:37:38.237Z,84.11
2023-04-19T06:39:50.883Z,83.90
2023-04-19T06:42:03.815Z,83.19
2023-04-19T06:44:16.468Z,83.02
2023-04-19T06:46:29.238Z,81.91
2023-04-19T06:48:41.929Z,82.27
2023-04-19T06:50:55.006Z,81.53
2023-04-19T06:53:07.529Z,80.99
2023-04-19T06:55:20.242Z,80.48
2023-04-19T06:57:33.114Z,79.65
2023-04-19T06:59:45.849Z,79.60
2023-04-19T07:01:58.612Z,78.82
2023-04-19T07:04:12.412Z,78.79
2023-04-19T07:06:24.982Z,78.26
2023-04-19T07:08:49.175Z,77.73
2023-04-19T07:11:02.234Z,77.73
2023-04-19T07:13:14.818Z,77.06
2023-04-19T07:15:27.570Z,76.58
2023-04-19T07:17:40.634Z,76.16
2023-04-19T07:19:53.188Z,76.04
2023-04-19T07:22:06.238Z,75.38
2023-04-19T07:24:18.862Z,74.69
2023-04-19T07:26:31.565Z,73.96
2023-04-19T07:28:44.146Z,73.53
2023-04-19T07:30:57.749Z,73.88
2023-04-19T07:33:10.793Z,74.18
2023-04-19T07:35:23.455Z,74.16
2023-04-19T07:37:36.044Z,74.45
2023-04-19T07:39:48.679Z,74.41
2023-04-19T07:42:01.688Z,74.16
2023-04-19T07:44:14.500Z,74.22
2023-04-19T07:46:27.575Z,73.97
2023-04-19T07:48:40.356Z,73.73
2023-04-19T07:50:53.062Z,74.09
2023-04-19T07:53:05.685Z,74.17
2023-04-19T07:55:18.868Z,74.26
2023-04-19T07:57:31.665Z,73.89
2023-04-19T07:59:44.205Z,74.46
2023-04-19T08:01:56.832Z,73.98
2023-04-19T08:04:11.229Z,73.41
2023-04-19T08:06:23.934Z,72.95
2023-04-19T08:08:37.224Z,72.54
2023-04-19T08:10:49.807Z,72.22
2023-04-19T08:13:05.818Z,72.81
2023-04-19T08:15:51.340Z,71.52
2023-04-19T08:17:51.475Z,72.81
2023-04-19T08:20:06.801Z,72.28
2023-04-19T08:22:21.141Z,71.43
2023-04-19T08:24:33.705Z,71.23
2023-04-19T08:26:53.457Z,71.01
2023-04-19T08:29:06.031Z,70.69
2023-04-19T08:31:20.844Z,70.97
2023-04-19T08:33:33.545Z,70.69
2023-04-19T08:35:46.127Z,70.89
2023-04-19T08:37:58.658Z,71.12
2023-04-19T08:40:11.414Z,70.90
2023-04-19T08:42:33.220Z,71.18
2023-04-19T08:45:06.301Z,71.51
2023-04-19T08:47:31.230Z,72.08
2023-04-19T08:49:45.698Z,72.45
2023-04-19T08:51:59.362Z,72.66
2023-04-19T08:54:11.901Z,73.24
2023-04-19T08:56:34.967Z,73.69
2023-04-19T09:01:05.805Z,74.32
2023-04-19T09:03:18.762Z,75.15
2023-04-19T09:05:31.846Z,75.83
2023-04-19T09:07:46.620Z,76.47
2023-04-19T09:10:11.240Z,76.84
2023-04-19T09:12:24.591Z,77.44
2023-04-19T09:14:53.820Z,77.75
2023-04-19T09:17:16.918Z,78.43
2023-04-19T09:19:45.788Z,78.63
2023-04-19T09:22:12.639Z,79.05
2023-04-19T09:25:15.441Z,79.12
2023-04-19T09:27:14.935Z,78.62
2023-04-19T09:29:27.589Z,78.49
2023-04-19T09:33:56.054Z,78.37
2023-04-19T09:36:09.092Z,78.36
2023-04-19T09:38:21.710Z,78.52
2023-04-19T09:40:34.704Z,78.01
2023-04-19T09:47:29.927Z,78.59
2023-04-19T09:49:49.132Z,78.66
2023-04-19T09:52:03.843Z,78.48
2023-04-19T09:54:18.188Z,78.51
2023-04-19T09:56:30.882Z,78.49
2023-04-19T09:58:51.184Z,78.42
2023-04-19T10:01:15.514Z,78.50
2023-04-19T10:03:30.182Z,78.80
2023-04-19T10:05:44.519Z,78.84
2023-04-19T10:08:00.178Z,78.82
2023-04-19T10:10:20.983Z,79.06
2023-04-19T10:14:51.602Z,79.20
2023-04-19T10:17:04.704Z,79.19
2023-04-19T10:19:19.223Z,79.10
2023-04-19T10:21:32.822Z,79.45
2023-04-19T10:23:46.171Z,79.23
2023-04-19T10:25:59.545Z,79.39
2023-04-19T10:28:12.122Z,79.29
2023-04-19T10:30:28.655Z,78.93
2023-04-19T10:32:43.559Z,79.00
2023-04-19T10:35:02.664Z,78.50
2023-04-19T10:37:15.235Z,78.19
2023-04-19T10:39:44.705Z,78.50
2023-04-19T10:41:58.668Z,78.49
2023-04-19T10:44:12.060Z,79.03
2023-04-19T10:46:26.009Z,79.15
2023-04-19T10:48:43.741Z,79.14
2023-04-19T10:51:07.508Z,79.75
2023-04-19T10:53:48.080Z,79.70
2023-04-19T10:56:00.718Z,79.66
2023-04-19T10:58:13.257Z,79.58
2023-04-19T11:00:31.214Z,79.58
2023-04-19T11:02:44.096Z,79.81
2023-04-19T11:04:56.659Z,80.29
2023-04-19T11:07:09.213Z,80.10
2023-04-19T11:09:34.666Z,80.25
2023-04-19T11:11:47.307Z,80.68
2023-04-19T11:14:02.473Z,81.09
2023-04-19T11:16:15.926Z,81.39
2023-04-19T11:18:30.076Z,81.69
2023-04-19T11:20:43.583Z,82.13
2023-04-19T11:23:00.958Z,82.39
2023-04-19T11:25:17.274Z,82.55
2023-04-19T11:27:29.880Z,82.83
2023-04-19T11:29:42.515Z,83.30
2023-04-19T11:31:55.109Z,83.78
2023-04-19T11:34:07.740Z,84.07
2023-04-19T11:36:20.496Z,84.59
2023-04-19T11:38:33.190Z,84.98
2023-04-19T11:40:46.126Z,85.39
2023-04-19T11:43:01.049Z,85.77
2023-04-19T11:45:35.416Z,86.06
2023-04-19T11:47:51.094Z,86.64
2023-04-19T11:50:35.917Z,87.24
2023-04-19T11:52:51.719Z,87.51
2023-04-19T11:55:18.654Z,88.31
2023-04-19T11:57:31.412Z,88.81
2023-04-19T12:00:11.717Z,89.23
2023-04-19T12:02:24.415Z,89.87
2023-04-19T12:04:38.451Z,89.90
2023-04-19T12:06:59.630Z,90.15
2023-04-19T12:09:12.225Z,90.89
2023-04-19T12:11:26.836Z,90.95
2023-04-19T12:13:40.914Z,91.21
2023-04-19T12:15:53.883Z,91.70
2023-04-19T12:18:06.654Z,91.74
2023-04-19T12:20:33.817Z,91.68
2023-04-19T12:22:46.319Z,91.76
2023-04-19T12:24:59.050Z,92.28
2023-04-19T12:27:11.725Z,92.43
2023-04-19T12:29:24.385Z,92.51
2023-04-19T12:31:36.953Z,92.27
2023-04-19T12:33:50.170Z,92.39
2023-04-19T12:36:02.711Z,92.49
2023-04-19T12:38:15.305Z,92.30
2023-04-19T12:40:29.058Z,91.81
2023-04-19T12:42:41.611Z,91.55
2023-04-19T12:44:54.186Z,91.12
2023-04-19T12:47:06.723Z,91.19
2023-04-19T12:49:20.085Z,91.07
2023-04-19T12:51:32.796Z,91.02
2023-04-19T12:53:49.448Z,90.85
2023-04-19T12:56:02.030Z,90.89
2023-04-19T12:58:15.816Z,90.80
2023-04-19T13:00:30.069Z,90.70
2023-04-19T13:02:43.172Z,90.55
2023-04-19T13:04:55.986Z,90.51
2023-04-19T13:07:08.684Z,90.46
2023-04-19T13:09:21.615Z,90.24
2023-04-19T13:11:34.291Z,90.13
2023-04-19T13:13:46.832Z,90.23
2023-04-19T13:15:59.471Z,90.51
2023-04-19T13:18:12.226Z,90.53
2023-04-19T13:20:24.761Z,90.43
2023-04-19T13:22:37.372Z,90.43
2023-04-19T13:24:49.921Z,90.30
2023-04-19T13:27:02.741Z,90.49
2023-04-19T13:29:15.496Z,90.39
2023-04-19T13:31:29.328Z,90.47
2023-04-19T13:33:42.160Z,90.50
2023-04-19T13:35:54.767Z,90.39
2023-04-19T13:38:07.451Z,90.33
2023-04-19T13:40:20.220Z,90.50
2023-04-19T13:42:32.845Z,90.57
2023-04-19T13:44:45.415Z,90.49
2023-04-19T13:46:58.011Z,90.43
2023-04-19T13:49:10.576Z,90.57
2023-04-19T13:51:23.109Z,90.96
2023-04-19T13:53:35.743Z,90.92
2023-04-19T13:55:48.632Z,90.58
2023-04-19T13:58:01.648Z,90.65
2023-04-19T14:00:14.999Z,90.65
2023-04-19T14:02:28.375Z,90.59
2023-04-19T14:04:41.322Z,90.35
2023-04-19T14:06:53.867Z,90.27
2023-04-19T14:09:06.805Z,90.01
2023-04-19T14:11:19.715Z,90.05
2023-04-19T14:13:32.262Z,89.78
2023-04-19T14:15:44.834Z,89.67
2023-04-19T14:17:57.596Z,89.80
2023-04-19T14:20:11.108Z,89.86
2023-04-19T14:22:23.687Z,89.99
2023-04-19T14:24:36.251Z,90.09
2023-04-19T14:26:59.896Z,89.79
2023-04-19T14:29:21.448Z,89.63
2023-04-19T14:31:34.490Z,89.51
2023-04-19T14:33:47.083Z,89.26
2023-04-19T14:35:59.673Z,89.06
2023-04-19T14:38:12.693Z,88.93
2023-04-19T14:40:25.500Z,88.91
2023-04-19T14:42:38.171Z,89.02
2023-04-19T14:44:52.082Z,88.92
2023-04-19T14:47:04.710Z,88.89
2023-04-19T14:49:17.410Z,88.53
2023-04-19T14:51:30.938Z,88.29
2023-04-19T14:53:43.456Z,88.40
2023-04-19T14:55:56.228Z,88.43
2023-04-19T14:58:08.821Z,88.35
2023-04-19T15:00:21.419Z,88.35
2023-04-19T15:02:34.130Z,88.32
2023-04-19T15:04:47.736Z,88.15
2023-04-19T15:07:00.429Z,88.09
2023-04-19T15:09:13.053Z,88.02
2023-04-19T15:11:25.619Z,88.01
2023-04-19T15:13:38.157Z,87.95
2023-04-19T15:15:51.268Z,88.02
2023-04-19T15:18:04.018Z,88.43
2023-04-19T15:20:17.010Z,88.26
2023-04-19T15:22:29.579Z,88.19
2023-04-19T15:24:42.113Z,88.32
2023-04-19T15:26:54.625Z,88.21
2023-04-19T15:29:07.182Z,87.42
2023-04-19T15:31:19.860Z,87.34
2023-04-19T15:33:33.541Z,87.25
2023-04-19T15:35:51.084Z,86.98
2023-04-19T15:38:03.618Z,86.51
2023-04-19T15:40:17.078Z,86.04
2023-04-19T15:42:29.654Z,85.72
2023-04-19T15:44:44.075Z,85.92
2023-04-19T15:46:56.918Z,85.52
2023-04-19T15:49:09.660Z,84.77
2023-04-19T15:51:22.232Z,83.47
2023-04-19T15:53:37.916Z,83.32
2023-04-19T15:55:50.475Z,83.10
2023-04-19T15:58:04.023Z,82.71
2023-04-19T16:00:17.103Z,82.39
2023-04-19T16:02:29.972Z,81.79
2023-04-19T16:04:42.816Z,81.61
2023-04-19T16:06:55.498Z,81.63
2023-04-19T16:09:09.081Z,81.76
2023-04-19T16:11:21.731Z,81.21
2023-04-19T16:13:35.674Z,81.01
2023-04-19T16:15:48.291Z,81.32
2023-04-19T16:18:01.155Z,81.52
2023-04-19T16:20:13.802Z,81.56
2023-04-19T16:22:26.386Z,81.50
2023-04-19T16:24:39.026Z,81.11
2023-04-19T16:26:51.582Z,81.24
2023-04-19T16:29:04.246Z,81.43
2023-04-19T16:31:16.941Z,81.56
2023-04-19T16:33:29.732Z,81.27
2023-04-19T16:35:42.328Z,80.94
2023-04-19T16:37:57.577Z,80.83
2023-04-19T16:40:11.243Z,80.71
2023-04-19T16:42:23.728Z,80.56
2023-04-19T16:44:36.254Z,79.97
2023-04-19T16:46:48.833Z,79.50
2023-04-19T16:49:01.506Z,79.17
2023-04-19T16:51:14.026Z,79.21
2023-04-19T16:53:26.574Z,80.11
2023-04-19T16:55:39.153Z,80.69
2023-04-19T16:57:53.631Z,80.55
2023-04-19T17:00:06.938Z,80.93
2023-04-19T17:02:19.751Z,81.26
2023-04-19T17:04:32.896Z,81.22
2023-04-19T17:06:45.679Z,81.46
2023-04-19T17:08:58.602Z,81.78
2023-04-19T17:11:11.240Z,82.04
2023-04-19T17:13:23.857Z,82.43
2023-04-19T17:15:38.042Z,82.77
2023-04-19T17:17:50.696Z,82.71
2023-04-19T17:20:05.909Z,82.58
2023-04-19T17:22:18.418Z,82.56
2023-04-19T17:24:32.491Z,82.33
2023-04-19T17:26:45.042Z,82.40
2023-04-19T17:28:58.230Z,82.53
2023-04-19T17:31:11.959Z,82.74
2023-04-19T17:33:24.533Z,82.95
2023-04-19T17:35:37.137Z,82.97
2023-04-19T17:37:49.789Z,83.14
2023-04-19T17:40:02.415Z,83.38
2023-04-19T17:42:14.924Z,83.75
2023-04-19T17:44:27.567Z,83.96
2023-04-19T17:46:40.462Z,84.31
2023-04-19T17:48:54.601Z,84.41
2023-04-19T17:51:07.428Z,84.52
2023-04-19T17:53:20.158Z,84.61
2023-04-19T17:55:33.653Z,84.57
2023-04-19T17:57:46.435Z,84.47
2023-04-19T18:00:00.198Z,84.77
2023-04-19T18:02:13.063Z,84.66
2023-04-19T18:04:26.044Z,84.57
2023-04-19T18:06:39.042Z,84.48
2023-04-19T18:08:51.573Z,84.32
2023-04-19T18:11:04.192Z,84.44
2023-04-19T18:13:16.757Z,84.22
2023-04-19T18:15:29.756Z,83.92
2023-04-19T18:17:42.468Z,83.76
2023-04-19T18:19:55.179Z,83.74
2023-04-19T18:22:07.802Z,83.69
2023-04-19T18:24:20.474Z,83.78
2023-04-19T18:26:51.203Z,83.39
2023-04-19T18:29:03.760Z,83.05
2023-04-19T18:31:16.398Z,83.06
2023-04-19T18:33:28.920Z,83.33
2023-04-19T18:35:41.503Z,83.44
2023-04-19T18:37:54.147Z,83.49
2023-04-19T18:40:07.833Z,83.65
2023-04-19T18:42:20.483Z,83.86
2023-04-19T18:44:52.018Z,84.27
2023-04-19T18:47:05.838Z,84.47
2023-04-19T18:49:18.566Z,84.88
2023-04-19T18:51:32.781Z,85.41
2023-04-19T18:53:45.552Z,85.44
2023-04-19T18:55:58.874Z,85.33
2023-04-19T18:58:11.921Z,85.17
2023-04-19T19:00:25.154Z,84.98
2023-04-19T19:02:40.433Z,85.25
2023-04-19T19:04:58.274Z,85.70
2023-04-19T19:07:33.238Z,85.86
2023-04-19T19:09:55.842Z,86.03
2023-04-19T19:12:09.109Z,86.29
2023-04-19T19:14:21.661Z,86.53
2023-04-19T19:18:51.464Z,86.70
2023-04-19T19:21:05.894Z,86.94
2023-04-19T19:23:18.432Z,87.15
2023-04-19T19:25:31.740Z,87.23
2023-04-19T19:28:02.266Z,87.30
2023-04-19T19:30:17.021Z,86.82
2023-04-19T19:32:32.401Z,86.50
2023-04-19T19:34:54.650Z,86.23
2023-04-19T19:37:08.599Z,86.18
2023-04-19T19:39:21.725Z,86.30
2023-04-19T19:41:56.373Z,86.21
2023-04-19T19:44:06.967Z,86.35
2023-04-19T19:46:22.330Z,86.27
2023-04-19T19:48:40.821Z,86.50
2023-04-19T19:51:28.642Z,86.47
2023-04-19T19:53:27.551Z,86.61
2023-04-19T19:55:40.252Z,86.53
2023-04-19T20:00:36.763Z,87.06
2023-04-19T20:02:54.933Z,87.35
2023-04-19T20:05:10.017Z,87.49
2023-04-19T20:09:38.319Z,88.06
2023-04-19T20:11:51.041Z,88.32
2023-04-19T20:14:03.651Z,88.59
2023-04-19T20:16:18.603Z,88.75
2023-04-19T20:18:32.322Z,89.01
2023-04-19T20:20:44.969Z,88.79
2023-04-19T20:22:57.639Z,89.09
2023-04-19T20:25:10.847Z,89.40
2023-04-19T20:27:23.408Z,89.87
2023-04-19T20:29:35.929Z,90.01
2023-04-19T20:31:48.551Z,90.27
2023-04-19T20:34:01.299Z,90.49
2023-04-19T20:36:13.978Z,90.46
2023-04-19T20:38:27.118Z,90.40
2023-04-19T20:40:40.385Z,90.45
2023-04-19T20:42:53.093Z,90.31
2023-04-19T20:45:07.524Z,90.61
2023-04-19T20:47:20.442Z,90.90
2023-04-19T20:49:32.980Z,91.02
2023-04-19T20:51:46.486Z,91.32
2023-04-19T20:53:59.182Z,91.47
2023-04-19T20:56:11.758Z,91.67
2023-04-19T20:58:24.578Z,91.83
2023-04-19T21:00:37.141Z,91.92
2023-04-19T21:02:49.858Z,92.23
2023-04-19T21:05:02.618Z,92.44
2023-04-19T21:07:15.146Z,92.76
2023-04-19T21:09:27.850Z,93.13
2023-04-19T21:11:40.662Z,93.44
2023-04-19T21:13:53.207Z,93.51
2023-04-19T21:16:06.176Z,93.63
2023-04-19T21:18:18.848Z,93.86
2023-04-19T21:20:31.416Z,93.77
2023-04-19T21:22:45.793Z,93.62
2023-04-19T21:24:58.346Z,93.53
2023-04-19T21:27:11.068Z,93.72
2023-04-19T21:29:25.233Z,93.83
2023-04-19T21:31:37.791Z,93.89
2023-04-19T21:33:50.480Z,93.83
2023-04-19T21:36:03.387Z,94.11
2023-04-19T21:38:15.974Z,94.07
2023-04-19T21:40:28.569Z,93.94
2023-04-19T21:42:41.126Z,94.03
2023-04-19T21:44:53.619Z,93.90
2023-04-19T21:47:07.013Z,93.75
2023-04-19T21:49:19.508Z,93.74
2023-04-19T21:51:32.221Z,94.11
2023-04-19T21:53:44.701Z,94.22
2023-04-19T21:55:57.216Z,94.11
2023-04-19T21:58:09.797Z,94.27
2023-04-19T22:00:24.198Z,94.48
2023-04-19T22:02:37.104Z,94.39
2023-04-19T22:04:49.953Z,94.59
2023-04-19T22:07:03.034Z,94.35
2023-04-19T22:09:16.116Z,94.31
2023-04-19T22:11:33.810Z,94.52
2023-04-19T22:13:47.025Z,94.75
2023-04-19T22:16:01.444Z,95.06
2023-04-19T22:18:14.028Z,95.11
2023-04-19T22:20:28.224Z,95.26
2023-04-19T22:22:40.826Z,95.47
2023-04-19T22:24:58.102Z,95.52
2023-04-19T22:27:10.994Z,95.48
2023-04-19T22:29:23.623Z,95.60
2023-04-19T22:31:36.134Z,95.86
2023-04-19T22:33:48.694Z,95.91
2023-04-19T22:36:01.215Z,96.02
2023-04-19T22:38:13.771Z,96.11
2023-04-19T22:40:26.392Z,96.35
2023-04-19T22:42:39.008Z,96.49
2023-04-19T22:44:51.499Z,96.60
2023-04-19T22:47:04.917Z,96.40
2023-04-19T22:49:17.630Z,96.37
2023-04-19T22:51:30.516Z,96.39
2023-04-19T22:53:43.030Z,96.45
2023-04-19T22:55:55.602Z,96.73
2023-04-19T22:58:09.204Z,96.97
2023-04-19T23:00:22.361Z,97.17
2023-04-19T23:02:34.975Z,97.33
2023-04-19T23:04:48.995Z,97.50
2023-04-19T23:07:01.719Z,97.58
2023-04-19T23:09:15.274Z,97.64
2023-04-19T23:11:29.904Z,97.68
2023-04-19T23:13:42.514Z,97.94
2023-04-19T23:15:55.354Z,97.92
2023-04-19T23:18:08.336Z,97.95
2023-04-19T23:20:21.530Z,98.26
2023-04-19T23:22:34.051Z,98.37
2023-04-19T23:24:46.638Z,98.52
2023-04-19T23:26:59.144Z,98.72
2023-04-19T23:29:11.653Z,98.78
2023-04-19T23:31:24.365Z,98.89
2023-04-19T23:33:36.947Z,98.87
2023-04-19T23:35:49.633Z,98.99
2023-04-19T23:38:02.280Z,99.01
2023-04-19T23:40:15.201Z,99.11
2023-04-19T23:42:27.740Z,99.29
2023-04-19T23:44:42.198Z,99.41
2023-04-19T23:46:56.239Z,99.57
2023-04-19T23:49:08.819Z,99.66
2023-04-19T23:51:21.356Z,99.59
2023-04-19T23:53:33.976Z,99.70
2023-04-19T23:55:46.487Z,99.89
2023-04-19T23:57:59.062Z,99.83
